Halfway's Hourly Summary for Sunday, March 19, 2017
Hour Temp
(f)
RH
(%)
Solar Rad.
(MJ/m2)
Rainfall
(in)
Wind
(mph)
3/19/2017 12:00 AM 57 57 0 0 5.38
3/19/2017 1:00 AM 56 60 0 0 6.07
3/19/2017 2:00 AM 57 62 0 0 7.45
3/19/2017 3:00 AM 55 63 0 0 7.79
3/19/2017 4:00 AM 52 69 0 0 7.38
3/19/2017 5:00 AM 54 76 0 0 9.14
3/19/2017 6:00 AM 50 80 0 0 5.66
3/19/2017 7:00 AM 48 87 0 0 6.01
3/19/2017 8:00 AM 48 90 0.01 0 7.19
3/19/2017 9:00 AM 50 90 0.34 0 8.98
3/19/2017 10:00 AM 56 78 1.02 0 12.25
3/19/2017 11:00 AM 63 62 1.74 0 14.22
3/19/2017 12:00 PM 71 34 2.35 0 13.45
3/19/2017 1:00 PM 79 17 2.8 0 13.72
3/19/2017 2:00 PM 86 8 2.85 0 12.72
3/19/2017 3:00 PM 88 8 3.06 0 12.43
3/19/2017 4:00 PM 88 7 2.58 0 10.53
3/19/2017 5:00 PM 89 7 2.3 0 13.75
3/19/2017 6:00 PM 89 7 1.77 0 11.23
3/19/2017 7:00 PM 87 7 1.02 0 10.85
3/19/2017 8:00 PM 81 8 0.28 0 5.57
3/19/2017 9:00 PM 70 15 0 0 6.3
3/19/2017 10:00 PM 69 24 0 0 8.57
3/19/2017 11:00 PM 68 30 0 0 10.91
Data Summary 67 43 22.12 0.00 9.48